createdAt,value
2022-12-20T00:02:28.744Z,21.29
2022-12-20T00:05:13.862Z,21.27
2022-12-20T00:07:59.307Z,21.27
2022-12-20T00:10:45.726Z,21.27
2022-12-20T00:13:31.403Z,21.26
2022-12-20T00:16:20.075Z,21.25
2022-12-20T00:19:07.176Z,21.25
2022-12-20T00:21:52.422Z,21.24
2022-12-20T00:24:37.869Z,21.24
2022-12-20T00:27:23.205Z,21.25
2022-12-20T00:30:08.834Z,21.23
2022-12-20T00:32:54.141Z,21.23
2022-12-20T00:35:43.179Z,21.23
2022-12-20T00:38:28.947Z,21.22
2022-12-20T00:41:21.015Z,21.21
2022-12-20T00:44:06.477Z,21.22
2022-12-20T00:46:51.709Z,21.21
2022-12-20T00:49:37.019Z,21.21
2022-12-20T00:52:22.272Z,21.21
2022-12-20T00:55:07.682Z,21.22
2022-12-20T00:57:53.454Z,21.21
2022-12-20T01:00:39.592Z,21.21
2022-12-20T01:03:26.406Z,21.21
2022-12-20T01:06:12.092Z,21.20
2022-12-20T01:08:58.512Z,21.19
2022-12-20T01:11:43.766Z,21.20
2022-12-20T01:22:34.407Z,21.18
2022-12-20T01:25:17.176Z,21.18
2022-12-20T01:28:02.521Z,21.18
2022-12-20T01:30:47.748Z,21.18
2022-12-20T01:33:33.345Z,21.17
2022-12-20T01:36:27.256Z,21.17
2022-12-20T01:39:16.143Z,21.16
2022-12-20T01:42:01.856Z,21.15
2022-12-20T01:44:56.472Z,21.17
2022-12-20T01:47:42.015Z,21.18
2022-12-20T01:50:27.394Z,21.17
2022-12-20T01:53:12.886Z,21.18
2022-12-20T01:56:03.891Z,21.19
2022-12-20T01:58:52.763Z,21.20
2022-12-20T02:01:38.703Z,21.21
2022-12-20T02:04:24.014Z,21.20
2022-12-20T02:07:15.020Z,21.20
2022-12-20T02:10:02.028Z,21.20
2022-12-20T02:12:48.676Z,21.20
2022-12-20T02:15:54.017Z,21.20
2022-12-20T02:18:49.642Z,21.20
2022-12-20T02:21:38.720Z,21.20
2022-12-20T02:24:44.006Z,21.20
2022-12-20T02:27:38.706Z,21.21
2022-12-20T02:30:28.794Z,21.20
2022-12-20T02:33:14.860Z,21.20
2022-12-20T02:36:00.126Z,21.20
2022-12-20T02:38:45.756Z,21.21
2022-12-20T02:41:39.006Z,21.20
2022-12-20T02:44:47.061Z,21.21
2022-12-20T02:47:46.745Z,21.19
2022-12-20T02:50:40.398Z,21.20
2022-12-20T02:53:26.526Z,21.18
2022-12-20T02:56:27.644Z,21.18
2022-12-20T02:59:22.075Z,21.19
2022-12-20T03:02:08.624Z,21.20
2022-12-20T03:04:56.849Z,21.20
2022-12-20T03:07:42.503Z,21.20
2022-12-20T03:10:27.816Z,21.22
2022-12-20T03:13:13.646Z,21.22
2022-12-20T03:16:07.025Z,21.20
2022-12-20T03:18:52.616Z,21.21
2022-12-20T03:21:37.865Z,21.21
2022-12-20T03:24:23.307Z,21.22
2022-12-20T03:27:09.647Z,21.22
2022-12-20T03:29:55.708Z,21.22
2022-12-20T03:32:41.243Z,21.21
2022-12-20T03:35:27.405Z,21.18
2022-12-20T03:38:12.909Z,21.22
2022-12-20T03:40:58.244Z,21.23
2022-12-20T03:43:43.569Z,21.23
2022-12-20T03:46:29.130Z,21.22
2022-12-20T03:49:14.776Z,21.23
2022-12-20T03:52:07.155Z,21.22
2022-12-20T03:54:52.561Z,21.23
2022-12-20T03:57:40.262Z,21.25
2022-12-20T04:00:36.646Z,21.24
2022-12-20T04:03:40.791Z,21.23
2022-12-20T04:06:25.947Z,21.23
2022-12-20T04:09:11.385Z,21.23
2022-12-20T04:12:04.988Z,21.22
2022-12-20T04:14:52.331Z,21.23
2022-12-20T04:17:37.572Z,21.23
2022-12-20T04:20:22.879Z,21.22
2022-12-20T04:23:17.196Z,21.19
2022-12-20T04:26:05.488Z,21.18
2022-12-20T04:28:52.492Z,21.16
2022-12-20T04:31:38.299Z,21.16
2022-12-20T04:34:23.900Z,21.15
2022-12-20T04:37:09.131Z,21.15
2022-12-20T04:40:06.082Z,21.15
2022-12-20T04:43:12.642Z,21.14
2022-12-20T04:45:57.974Z,21.15
2022-12-20T04:49:00.369Z,21.18
2022-12-20T04:51:47.073Z,21.18
2022-12-20T04:54:34.769Z,21.17
2022-12-20T04:57:31.116Z,21.21
2022-12-20T05:00:18.114Z,21.22
2022-12-20T05:03:09.705Z,21.25
2022-12-20T05:05:55.344Z,21.28
2022-12-20T05:08:42.214Z,21.32
2022-12-20T05:11:27.775Z,21.36
2022-12-20T05:14:13.667Z,21.39
2022-12-20T05:16:59.067Z,21.42
2022-12-20T05:19:46.438Z,21.45
2022-12-20T05:22:52.362Z,21.47
2022-12-20T05:26:06.269Z,21.50
2022-12-20T05:28:52.041Z,21.53
2022-12-20T05:31:37.861Z,21.54
2022-12-20T05:34:23.369Z,21.56
2022-12-20T05:37:11.818Z,21.61
2022-12-20T05:39:59.151Z,21.64
2022-12-20T05:51:22.009Z,21.69
2022-12-20T05:54:15.794Z,21.77
2022-12-20T05:57:08.626Z,21.82
2022-12-20T05:59:56.875Z,21.82
2022-12-20T06:02:43.933Z,21.84
2022-12-20T06:05:30.085Z,21.84
2022-12-20T06:08:18.964Z,21.80
2022-12-20T06:11:05.234Z,21.81
2022-12-20T06:14:00.077Z,21.81
2022-12-20T06:16:46.755Z,21.79
2022-12-20T06:19:34.505Z,21.77
2022-12-20T06:22:21.435Z,21.77
2022-12-20T06:25:12.510Z,21.76
2022-12-20T06:27:59.166Z,21.74
2022-12-20T06:30:44.412Z,21.73
2022-12-20T06:33:43.459Z,21.71
2022-12-20T06:36:29.620Z,21.67
2022-12-20T06:39:15.376Z,21.67
2022-12-20T06:42:09.726Z,21.65
2022-12-20T06:44:57.684Z,21.62
2022-12-20T06:47:42.958Z,21.62
2022-12-20T06:50:28.249Z,21.61
2022-12-20T06:53:15.164Z,21.59
2022-12-20T06:56:00.352Z,21.58
2022-12-20T06:58:47.313Z,21.57
2022-12-20T07:01:32.777Z,21.54
2022-12-20T07:04:18.637Z,21.55
2022-12-20T07:07:04.550Z,21.53
2022-12-20T07:09:49.852Z,21.50
2022-12-20T07:12:35.286Z,21.49
2022-12-20T07:15:22.249Z,21.48
2022-12-20T07:18:07.544Z,21.47
2022-12-20T07:20:53.048Z,21.46
2022-12-20T07:23:38.687Z,21.45
2022-12-20T07:26:24.243Z,21.46
2022-12-20T07:29:15.178Z,21.46
2022-12-20T07:32:01.311Z,21.45
2022-12-20T07:34:46.365Z,21.45
2022-12-20T07:37:31.844Z,21.47
2022-12-20T07:40:17.326Z,21.47
2022-12-20T07:43:02.876Z,21.46
2022-12-20T07:45:48.359Z,21.44
2022-12-20T07:48:35.171Z,21.44
2022-12-20T07:51:34.380Z,21.44
2022-12-20T07:54:26.233Z,21.43
2022-12-20T07:57:17.572Z,21.43
2022-12-20T08:00:04.811Z,21.42
2022-12-20T08:03:06.389Z,21.41
2022-12-20T08:05:56.385Z,21.42
2022-12-20T08:08:47.714Z,21.41
2022-12-20T08:11:36.151Z,21.42
2022-12-20T08:14:22.139Z,21.42
2022-12-20T08:17:07.670Z,21.41
2022-12-20T08:19:53.425Z,21.42
2022-12-20T08:22:38.621Z,21.42
2022-12-20T08:25:24.367Z,21.41
2022-12-20T08:28:10.244Z,21.41
2022-12-20T08:31:07.292Z,21.40
2022-12-20T08:33:55.136Z,21.41
2022-12-20T08:36:41.069Z,21.41
2022-12-20T08:39:26.645Z,21.41
2022-12-20T08:42:12.455Z,21.41
2022-12-20T08:44:57.809Z,21.41
2022-12-20T08:47:43.012Z,21.40
2022-12-20T08:50:29.310Z,21.39
2022-12-20T08:53:14.982Z,21.40
2022-12-20T08:56:12.087Z,21.41
2022-12-20T08:58:57.673Z,21.40
2022-12-20T09:01:43.362Z,21.40
2022-12-20T09:04:28.585Z,21.40
2022-12-20T09:07:13.999Z,21.41
2022-12-20T09:09:59.242Z,21.42
2022-12-20T09:12:44.542Z,21.42
2022-12-20T09:15:29.875Z,21.41
2022-12-20T09:18:15.318Z,21.41
2022-12-20T09:21:05.109Z,21.41
2022-12-20T09:23:51.497Z,21.41
2022-12-20T09:26:37.054Z,21.40
2022-12-20T09:29:28.220Z,21.42
2022-12-20T09:32:17.580Z,21.42
2022-12-20T09:35:03.443Z,21.40
2022-12-20T09:37:48.974Z,21.43
2022-12-20T09:40:37.591Z,21.42
2022-12-20T09:43:24.237Z,21.42
2022-12-20T09:46:14.803Z,21.42
2022-12-20T09:49:00.546Z,21.41
2022-12-20T09:52:04.757Z,21.42
2022-12-20T09:55:02.044Z,21.43
2022-12-20T09:58:03.599Z,21.41
2022-12-20T10:00:54.254Z,21.41
2022-12-20T10:03:40.267Z,21.42
2022-12-20T10:06:34.860Z,21.42
2022-12-20T10:09:29.821Z,21.41
2022-12-20T10:12:30.237Z,21.41
2022-12-20T10:15:33.844Z,21.41
2022-12-20T10:18:53.441Z,21.40
2022-12-20T10:21:56.497Z,21.40
2022-12-20T10:24:48.181Z,21.41
2022-12-20T10:27:37.952Z,21.41
2022-12-20T10:30:26.672Z,21.39
2022-12-20T10:33:20.085Z,21.39
2022-12-20T10:36:26.999Z,21.39
2022-12-20T10:39:12.791Z,21.39
2022-12-20T10:41:58.094Z,21.38
2022-12-20T10:44:44.165Z,21.38
2022-12-20T10:47:41.968Z,21.39
2022-12-20T10:50:27.545Z,21.39
2022-12-20T10:53:25.209Z,21.38
2022-12-20T10:56:27.520Z,21.39
2022-12-20T10:59:15.846Z,21.40
2022-12-20T11:02:16.642Z,21.40
2022-12-20T11:05:09.696Z,21.38
2022-12-20T11:11:22.001Z,21.38
2022-12-20T11:14:15.196Z,21.36
2022-12-20T11:17:05.822Z,21.37
2022-12-20T11:19:54.643Z,21.38
2022-12-20T11:23:12.055Z,21.36
2022-12-20T11:26:19.397Z,21.35
2022-12-20T11:29:35.759Z,21.35
2022-12-20T11:32:46.483Z,21.35
2022-12-20T11:35:40.496Z,21.36
2022-12-20T11:38:31.898Z,21.36
2022-12-20T11:41:30.776Z,21.34
2022-12-20T11:44:25.763Z,21.34
2022-12-20T11:47:39.264Z,21.33
2022-12-20T11:51:01.876Z,21.33
2022-12-20T11:54:09.320Z,21.33
2022-12-20T11:57:04.515Z,21.33
2022-12-20T12:00:02.647Z,21.34
2022-12-20T12:03:02.199Z,21.33
2022-12-20T12:05:53.867Z,21.33
2022-12-20T12:08:45.391Z,21.34
2022-12-20T12:15:00.573Z,21.33
2022-12-20T12:18:20.140Z,21.32
2022-12-20T12:21:09.363Z,21.32
2022-12-20T12:24:19.376Z,21.32
2022-12-20T12:27:08.009Z,21.31
2022-12-20T12:29:58.592Z,21.31
2022-12-20T12:32:57.477Z,21.31
2022-12-20T12:36:02.683Z,21.31
2022-12-20T12:39:05.681Z,21.31
2022-12-20T12:42:20.355Z,21.30
2022-12-20T12:45:15.600Z,21.31
2022-12-20T12:48:08.380Z,21.31
2022-12-20T12:50:57.388Z,21.30
2022-12-20T12:53:51.439Z,21.30
2022-12-20T12:56:44.683Z,21.29
2022-12-20T12:59:34.067Z,21.30
2022-12-20T13:02:26.358Z,21.30
2022-12-20T13:05:17.299Z,21.30
2022-12-20T13:08:16.882Z,21.30
2022-12-20T13:11:02.910Z,21.29
2022-12-20T13:13:48.183Z,21.30
2022-12-20T13:17:10.168Z,21.30
2022-12-20T13:19:39.632Z,21.31
2022-12-20T13:22:26.432Z,21.30
2022-12-20T13:25:31.131Z,21.30
2022-12-20T13:28:16.954Z,21.30
2022-12-20T13:31:02.581Z,21.31
2022-12-20T13:33:50.235Z,21.31
2022-12-20T13:36:37.887Z,21.29
2022-12-20T13:39:23.049Z,21.31
2022-12-20T13:42:33.079Z,21.30
2022-12-20T13:45:18.986Z,21.30
2022-12-20T13:48:11.407Z,21.29
2022-12-20T13:50:58.178Z,21.30
2022-12-20T13:54:07.915Z,21.31
2022-12-20T13:56:54.193Z,21.30
2022-12-20T13:59:39.503Z,21.30
2022-12-20T14:02:30.531Z,21.29
2022-12-20T14:05:21.942Z,21.31
2022-12-20T14:08:14.560Z,21.28
2022-12-20T14:11:13.785Z,21.30
2022-12-20T14:14:04.764Z,21.30
2022-12-20T14:16:50.288Z,21.31
2022-12-20T14:19:35.564Z,21.30
2022-12-20T14:22:20.919Z,21.30
2022-12-20T14:25:08.019Z,21.32
2022-12-20T14:27:53.826Z,21.33
2022-12-20T14:30:45.029Z,21.34
2022-12-20T14:33:40.381Z,21.35
2022-12-20T14:36:25.515Z,21.41
2022-12-20T14:39:26.804Z,21.43
2022-12-20T14:42:13.492Z,21.47
2022-12-20T14:45:03.967Z,21.47
2022-12-20T14:48:03.338Z,21.51
2022-12-20T14:50:53.644Z,21.55
2022-12-20T14:53:40.456Z,21.59
2022-12-20T14:56:31.681Z,21.65
2022-12-20T14:59:24.843Z,21.67
2022-12-20T15:02:35.482Z,21.74
2022-12-20T15:05:45.538Z,21.76
2022-12-20T15:08:37.838Z,21.79
2022-12-20T15:11:24.195Z,21.81
2022-12-20T15:14:30.884Z,21.86
2022-12-20T15:17:16.506Z,21.90
2022-12-20T15:20:01.877Z,21.93
2022-12-20T15:22:47.590Z,21.97
2022-12-20T15:25:42.931Z,22.00
2022-12-20T15:28:28.879Z,22.03
2022-12-20T15:31:16.773Z,22.06
2022-12-20T15:34:15.554Z,22.07
2022-12-20T15:37:02.485Z,22.07
2022-12-20T15:39:47.766Z,22.10
2022-12-20T15:42:33.290Z,22.13
2022-12-20T15:45:18.778Z,22.16
2022-12-20T15:48:04.327Z,22.18
2022-12-20T15:50:58.134Z,22.21
2022-12-20T15:53:43.481Z,22.24
2022-12-20T15:56:29.900Z,22.27
2022-12-20T15:59:48.975Z,22.31
2022-12-20T16:02:27.992Z,22.33
2022-12-20T16:05:14.046Z,22.34
2022-12-20T16:07:59.605Z,22.37
2022-12-20T16:10:46.637Z,22.38
2022-12-20T16:13:32.182Z,22.39
2022-12-20T16:16:19.678Z,22.40
2022-12-20T16:19:05.218Z,22.39
2022-12-20T16:21:52.233Z,22.38
2022-12-20T16:24:37.692Z,22.36
2022-12-20T16:27:22.957Z,22.34
2022-12-20T16:30:08.810Z,22.35
2022-12-20T16:32:54.813Z,22.35
2022-12-20T16:35:40.220Z,22.33
2022-12-20T16:38:25.990Z,22.33
2022-12-20T16:41:17.407Z,22.34
2022-12-20T16:44:04.332Z,22.35
2022-12-20T16:46:49.748Z,22.34
2022-12-20T16:49:37.659Z,22.35
2022-12-20T16:52:24.877Z,22.38
2022-12-20T16:55:15.833Z,22.36
2022-12-20T16:58:01.011Z,22.37
2022-12-20T17:00:46.643Z,22.36
2022-12-20T17:03:33.219Z,22.36
2022-12-20T17:06:18.996Z,22.38
2022-12-20T17:12:25.876Z,22.40
2022-12-20T17:15:23.709Z,22.41
2022-12-20T17:18:09.729Z,22.42
2022-12-20T17:20:55.744Z,22.42
2022-12-20T17:23:44.066Z,22.44
2022-12-20T17:26:34.442Z,22.41
2022-12-20T17:29:20.614Z,22.43
2022-12-20T17:32:19.918Z,22.40
2022-12-20T17:35:08.471Z,22.41
2022-12-20T17:37:56.253Z,22.41
2022-12-20T17:40:42.064Z,22.38
2022-12-20T17:43:30.921Z,22.35
2022-12-20T17:46:16.943Z,22.34
2022-12-20T17:49:02.429Z,22.34
2022-12-20T17:51:47.945Z,22.33
2022-12-20T17:54:39.541Z,22.33
2022-12-20T17:57:25.698Z,22.30
2022-12-20T18:00:22.360Z,22.28
2022-12-20T18:03:07.805Z,22.27
2022-12-20T18:05:53.949Z,22.26
2022-12-20T18:08:39.390Z,22.24
2022-12-20T18:11:27.496Z,22.20
2022-12-20T18:14:13.850Z,22.21
2022-12-20T18:16:59.354Z,22.19
2022-12-20T18:19:45.677Z,22.18
2022-12-20T18:22:33.895Z,22.17
2022-12-20T18:25:19.603Z,22.17
2022-12-20T18:28:05.013Z,22.17
2022-12-20T18:30:50.611Z,22.17
2022-12-20T18:33:36.518Z,22.15
2022-12-20T18:36:24.913Z,22.15
2022-12-20T18:39:13.017Z,22.14
2022-12-20T18:41:58.243Z,22.10
2022-12-20T18:44:43.417Z,22.08
2022-12-20T18:47:32.545Z,22.07
2022-12-20T18:50:18.732Z,22.01
2022-12-20T18:53:04.167Z,21.98
2022-12-20T18:55:49.569Z,21.95
2022-12-20T18:58:36.537Z,21.94
2022-12-20T19:01:26.906Z,21.91
2022-12-20T19:04:12.388Z,21.89
2022-12-20T19:06:57.702Z,21.86
2022-12-20T19:09:43.047Z,21.84
2022-12-20T19:12:29.939Z,21.79
2022-12-20T19:15:15.336Z,21.77
2022-12-20T19:18:00.812Z,21.74
2022-12-20T19:20:46.133Z,21.75
2022-12-20T19:24:57.100Z,21.72
2022-12-20T19:27:43.356Z,21.69
2022-12-20T19:30:30.123Z,21.67
2022-12-20T19:33:15.753Z,21.65
2022-12-20T19:36:08.634Z,21.61
2022-12-20T19:38:57.156Z,21.60
2022-12-20T19:41:42.881Z,21.56
2022-12-20T19:44:28.263Z,21.55
2022-12-20T19:47:13.672Z,21.53
2022-12-20T19:49:59.613Z,21.51
2022-12-20T19:52:45.472Z,21.50
2022-12-20T19:55:31.617Z,21.49
2022-12-20T19:58:17.273Z,21.48
2022-12-20T20:01:04.627Z,21.48
2022-12-20T20:03:50.201Z,21.47
2022-12-20T20:06:36.344Z,21.47
2022-12-20T20:09:21.842Z,21.44
2022-12-20T20:12:07.532Z,21.44
2022-12-20T20:14:53.134Z,21.42
2022-12-20T20:17:38.804Z,21.41
2022-12-20T20:20:24.251Z,21.40
2022-12-20T20:23:09.923Z,21.39
2022-12-20T20:25:56.978Z,21.38
2022-12-20T20:28:44.919Z,21.36
2022-12-20T20:31:30.748Z,21.36
2022-12-20T20:34:16.437Z,21.36
2022-12-20T20:37:01.743Z,21.36
2022-12-20T20:39:47.935Z,21.36
2022-12-20T20:42:33.487Z,21.35
2022-12-20T20:45:18.756Z,21.36
2022-12-20T20:48:06.093Z,21.36
2022-12-20T20:50:51.355Z,21.38
2022-12-20T20:53:36.791Z,21.41
2022-12-20T20:56:22.127Z,21.44
2022-12-20T20:59:11.874Z,21.49
2022-12-20T21:02:03.180Z,21.54
2022-12-20T21:05:16.658Z,21.60
2022-12-20T21:07:54.364Z,21.65
2022-12-20T21:10:39.834Z,21.66
2022-12-20T21:13:25.142Z,21.69
2022-12-20T21:16:14.389Z,21.73
2022-12-20T21:18:59.928Z,21.76
2022-12-20T21:21:45.182Z,21.76
2022-12-20T21:24:30.615Z,21.78
2022-12-20T21:27:15.960Z,21.79
2022-12-20T21:30:01.364Z,21.83
2022-12-20T21:32:46.655Z,21.85
2022-12-20T21:35:32.119Z,21.87
2022-12-20T21:38:17.431Z,21.86
2022-12-20T21:41:08.295Z,21.89
2022-12-20T21:43:58.543Z,21.91
2022-12-20T21:46:44.151Z,21.94
2022-12-20T21:49:30.012Z,21.95
2022-12-20T21:52:15.308Z,21.94
2022-12-20T21:55:00.724Z,21.96
2022-12-20T21:57:48.075Z,21.97
2022-12-20T22:00:33.416Z,22.00
2022-12-20T22:03:19.869Z,22.00
2022-12-20T22:06:05.255Z,22.01
2022-12-20T22:08:50.875Z,22.02
2022-12-20T22:11:36.481Z,22.00
2022-12-20T22:14:22.010Z,22.04
2022-12-20T22:17:07.312Z,22.06
2022-12-20T22:19:52.517Z,22.07
2022-12-20T22:22:38.004Z,22.08
2022-12-20T22:25:23.551Z,22.07
2022-12-20T22:28:09.363Z,22.08
2022-12-20T22:36:36.700Z,22.13
2022-12-20T22:39:21.291Z,22.16
2022-12-20T22:42:05.663Z,22.18
2022-12-20T22:44:50.258Z,22.19
2022-12-20T22:47:35.426Z,22.18
2022-12-20T22:50:20.645Z,22.20
2022-12-20T22:53:05.878Z,22.16
2022-12-20T22:55:51.989Z,22.15
2022-12-20T22:58:38.563Z,22.11
2022-12-20T23:01:24.979Z,22.07
2022-12-20T23:04:10.657Z,22.05
2022-12-20T23:06:55.989Z,22.01
2022-12-20T23:09:41.270Z,21.97
2022-12-20T23:12:45.125Z,21.96
2022-12-20T23:15:42.753Z,21.92
2022-12-20T23:18:28.175Z,21.89
2022-12-20T23:21:32.061Z,21.89
2022-12-20T23:24:17.415Z,21.84
2022-12-20T23:27:02.781Z,21.83
2022-12-20T23:29:48.152Z,21.80
2022-12-20T23:32:33.515Z,21.79
2022-12-20T23:35:20.303Z,21.75
2022-12-20T23:38:05.972Z,21.75
2022-12-20T23:40:51.309Z,21.73
2022-12-20T23:43:37.031Z,21.72
2022-12-20T23:46:22.372Z,21.68
2022-12-20T23:49:07.520Z,21.67
2022-12-20T23:51:52.728Z,21.65
2022-12-20T23:54:37.978Z,21.63
2022-12-20T23:57:23.403Z,21.62
